createdAt,value
2022-09-15T00:00:13.636Z,3.40
2022-09-15T00:02:59.085Z,3.40
2022-09-15T00:05:13.697Z,3.50
2022-09-15T00:09:10.574Z,3.10
2022-09-15T00:12:12.939Z,3.70
2022-09-15T00:14:38.387Z,3.80
2022-09-15T00:16:09.269Z,4.10
2022-09-15T00:22:52.079Z,4.30
2022-09-15T00:24:26.004Z,4.40
2022-09-15T00:26:55.290Z,3.90
2022-09-15T00:34:51.122Z,3.90
2022-09-15T00:37:29.895Z,4.10
2022-09-15T00:38:50.529Z,4.40
2022-09-15T00:41:34.423Z,3.80
2022-09-15T00:44:33.267Z,4.40
2022-09-15T00:46:07.560Z,4.10
2022-09-15T00:48:57.944Z,4.60
2022-09-15T00:56:10.880Z,4.00
2022-09-15T00:59:07.762Z,4.10
2022-09-15T01:01:17.021Z,4.20
2022-09-15T01:02:25.438Z,4.50
2022-09-15T01:04:36.955Z,4.30
2022-09-15T01:06:33.319Z,3.80
2022-09-15T01:08:05.483Z,3.50
2022-09-15T01:09:40.075Z,4.10
2022-09-15T01:12:17.194Z,4.20
2022-09-15T01:14:23.902Z,4.20
2022-09-15T01:16:55.869Z,3.90
2022-09-15T01:19:44.679Z,4.10
2022-09-15T01:21:58.099Z,4.50
2022-09-15T01:23:52.616Z,4.40
2022-09-15T01:28:52.502Z,4.50
2022-09-15T01:31:46.548Z,4.50
2022-09-15T01:36:12.473Z,5.00
2022-09-15T01:40:14.161Z,5.10
2022-09-15T01:42:38.781Z,4.30
2022-09-15T01:45:21.625Z,4.30
2022-09-15T01:46:55.005Z,4.10
2022-09-15T01:49:40.689Z,4.10
2022-09-15T01:56:33.582Z,3.70
2022-09-15T01:58:06.776Z,3.80
2022-09-15T02:01:40.297Z,4.20
2022-09-15T02:04:07.840Z,4.30
2022-09-15T02:06:47.454Z,4.50
2022-09-15T02:11:42.287Z,4.20
2022-09-15T02:15:16.671Z,4.40
2022-09-15T02:21:21.247Z,4.70
2022-09-15T02:24:05.817Z,3.90
2022-09-15T02:32:54.713Z,4.80
2022-09-15T02:35:30.469Z,4.30
2022-09-15T02:38:04.772Z,4.30
2022-09-15T02:39:35.345Z,4.00
2022-09-15T02:41:59.616Z,4.90
2022-09-15T02:46:10.857Z,4.60
2022-09-15T02:48:35.841Z,4.70
2022-09-15T02:54:43.974Z,4.10
2022-09-15T02:56:15.867Z,4.00
2022-09-15T03:00:29.589Z,4.20
2022-09-15T03:06:02.735Z,4.00
2022-09-15T03:09:18.106Z,3.60
2022-09-15T03:12:10.071Z,3.70
2022-09-15T03:13:39.812Z,3.80
2022-09-15T03:17:59.475Z,3.20
2022-09-15T03:20:09.298Z,4.20
2022-09-15T03:22:11.813Z,4.10
2022-09-15T03:24:15.997Z,4.50
2022-09-15T03:25:50.257Z,4.40
2022-09-15T03:31:11.303Z,4.70
2022-09-15T03:32:41.300Z,4.40
2022-09-15T03:34:12.649Z,4.50
2022-09-15T03:35:45.119Z,4.70
2022-09-15T03:37:19.479Z,5.40
2022-09-15T03:38:48.282Z,4.60
2022-09-15T03:51:57.691Z,4.50
2022-09-15T03:55:00.795Z,6.10
2022-09-15T03:56:54.018Z,4.70
2022-09-15T04:01:39.356Z,4.50
2022-09-15T04:04:54.459Z,4.30
2022-09-15T04:06:31.278Z,5.00
2022-09-15T04:11:08.757Z,4.80
2022-09-15T04:12:41.954Z,4.20
2022-09-15T04:14:10.008Z,4.80
2022-09-15T04:21:29.867Z,4.80
2022-09-15T04:26:58.486Z,4.70
2022-09-15T04:31:26.317Z,4.40
2022-09-15T04:34:03.228Z,4.40
2022-09-15T04:38:25.426Z,4.80
2022-09-15T04:41:21.675Z,4.80
2022-09-15T04:44:27.108Z,4.20
2022-09-15T04:49:11.967Z,4.30
2022-09-15T04:50:47.174Z,5.10
2022-09-15T04:52:42.197Z,4.30
2022-09-15T04:55:05.169Z,4.40
2022-09-15T04:59:14.331Z,4.00
2022-09-15T05:01:59.826Z,3.80
2022-09-15T05:05:16.503Z,4.60
2022-09-15T05:07:13.524Z,4.40
2022-09-15T05:09:39.184Z,4.10
2022-09-15T05:12:37.929Z,4.00
2022-09-15T05:14:11.299Z,3.60
2022-09-15T05:16:03.377Z,3.90
2022-09-15T05:18:04.948Z,3.80
2022-09-15T05:20:00.307Z,3.70
2022-09-15T05:22:44.165Z,3.70
2022-09-15T05:24:43.192Z,4.30
2022-09-15T05:26:15.156Z,3.40
2022-09-15T05:28:06.119Z,3.60
2022-09-15T05:33:48.029Z,3.70
2022-09-15T05:36:06.433Z,3.80
2022-09-15T05:39:21.840Z,3.10
2022-09-15T05:42:34.166Z,2.70
2022-09-15T05:46:20.098Z,2.70
2022-09-15T05:48:58.874Z,2.70
2022-09-15T05:51:09.138Z,2.60
2022-09-15T05:52:46.896Z,3.20
2022-09-15T05:57:08.268Z,2.80
2022-09-15T05:59:42.570Z,3.80
2022-09-15T06:03:06.521Z,2.50
2022-09-15T06:08:00.599Z,5.40
2022-09-15T06:11:38.197Z,3.40
2022-09-15T06:15:23.060Z,3.30
2022-09-15T06:17:05.949Z,3.40
2022-09-15T06:20:00.320Z,2.70
2022-09-15T06:22:52.737Z,2.80
2022-09-15T06:25:23.747Z,3.00
2022-09-15T06:28:11.900Z,2.60
2022-09-15T06:36:08.116Z,3.10
2022-09-15T06:38:29.097Z,3.50
2022-09-15T06:44:01.501Z,4.50
2022-09-15T06:47:24.844Z,3.40
2022-09-15T06:49:04.877Z,3.50
2022-09-15T06:50:50.664Z,2.80
2022-09-15T06:54:58.591Z,3.20
2022-09-15T06:56:37.827Z,2.90
2022-09-15T06:58:52.126Z,2.50
2022-09-15T07:00:21.106Z,2.90
2022-09-15T07:02:11.239Z,2.90
2022-09-15T07:06:54.542Z,2.50
2022-09-15T07:08:27.595Z,2.60
2022-09-15T07:11:32.126Z,2.10
2022-09-15T07:14:34.489Z,2.80
2022-09-15T07:17:02.059Z,1.80
2022-09-15T07:20:10.720Z,1.70
2022-09-15T07:21:40.239Z,1.50
2022-09-15T07:23:14.181Z,1.90
2022-09-15T07:25:53.081Z,2.20
2022-09-15T07:29:56.572Z,1.70
2022-09-15T07:31:48.930Z,2.30
2022-09-15T07:34:25.482Z,2.50
2022-09-15T07:35:24.426Z,1.80
2022-09-15T07:36:24.457Z,1.80
2022-09-15T07:39:18.877Z,3.20
2022-09-15T07:45:27.950Z,1.80
2022-09-15T07:47:18.566Z,1.90
2022-09-15T07:51:30.136Z,2.10
2022-09-15T07:52:59.985Z,2.00
2022-09-15T07:54:29.266Z,1.80
2022-09-15T07:58:06.456Z,1.70
2022-09-15T08:00:11.228Z,2.00
2022-09-15T08:02:19.873Z,2.10
2022-09-15T08:05:04.202Z,1.80
2022-09-15T08:07:40.317Z,1.40
2022-09-15T08:13:27.592Z,1.50
2022-09-15T08:15:17.914Z,1.70
2022-09-15T08:16:59.275Z,2.00
2022-09-15T08:19:18.044Z,2.30
2022-09-15T08:21:06.795Z,1.50
2022-09-15T08:22:35.854Z,1.60
2022-09-15T08:24:58.119Z,1.40
2022-09-15T08:26:25.017Z,1.60
2022-09-15T08:33:40.826Z,1.50
2022-09-15T08:36:05.567Z,1.50
2022-09-15T08:43:45.727Z,1.90
2022-09-15T08:45:43.247Z,1.30
2022-09-15T08:52:42.578Z,1.40
2022-09-15T08:54:54.340Z,1.20
2022-09-15T08:57:14.818Z,1.10
2022-09-15T09:00:07.533Z,1.10
2022-09-15T09:01:36.550Z,1.20
2022-09-15T09:05:51.313Z,1.30
2022-09-15T09:08:36.069Z,1.00
2022-09-15T09:15:04.436Z,1.00
2022-09-15T09:24:07.942Z,1.00
2022-09-15T09:26:41.071Z,0.90
2022-09-15T09:30:00.846Z,1.20
2022-09-15T09:31:25.377Z,0.90
2022-09-15T09:33:47.304Z,1.00
2022-09-15T09:37:35.047Z,1.40
2022-09-15T09:39:27.297Z,1.10
2022-09-15T09:53:15.155Z,1.00
2022-09-15T09:56:44.403Z,0.70
2022-09-15T10:00:15.625Z,1.40
2022-09-15T10:01:46.515Z,2.20
2022-09-15T10:06:17.469Z,0.90
2022-09-15T10:08:08.971Z,0.80
2022-09-15T10:09:41.825Z,0.80
2022-09-15T10:15:12.545Z,1.00
2022-09-15T10:21:58.096Z,1.00
2022-09-15T10:23:27.138Z,1.40
2022-09-15T10:25:59.955Z,0.90
2022-09-15T10:29:00.840Z,0.70
2022-09-15T10:37:45.510Z,1.20
2022-09-15T10:39:46.171Z,1.10
2022-09-15T10:42:46.845Z,1.10
2022-09-15T10:45:05.763Z,1.40
2022-09-15T10:48:58.438Z,0.80
2022-09-15T10:51:35.002Z,1.20
2022-09-15T10:53:10.394Z,1.30
2022-09-15T10:58:00.751Z,1.30
2022-09-15T11:04:22.925Z,1.00
2022-09-15T11:06:24.011Z,0.90
2022-09-15T11:10:16.992Z,1.30
2022-09-15T11:12:43.065Z,1.30
2022-09-15T11:20:31.749Z,2.20
2022-09-15T11:22:29.177Z,1.60
2022-09-15T11:25:05.249Z,1.70
2022-09-15T11:30:06.475Z,1.40
2022-09-15T11:31:47.981Z,1.80
2022-09-15T11:33:24.413Z,1.00
2022-09-15T11:35:16.543Z,1.80
2022-09-15T11:38:44.642Z,1.50
2022-09-15T11:40:54.260Z,1.30
2022-09-15T11:45:32.041Z,1.10
2022-09-15T11:47:32.174Z,1.70
2022-09-15T11:48:58.323Z,1.20
2022-09-15T11:50:50.429Z,2.00
2022-09-15T11:52:20.129Z,1.20
2022-09-15T11:54:59.142Z,1.40
2022-09-15T11:59:10.133Z,1.30
2022-09-15T12:01:09.486Z,1.20
2022-09-15T12:08:15.268Z,1.00
2022-09-15T12:13:29.363Z,1.80
2022-09-15T12:17:14.924Z,1.00
2022-09-15T12:20:24.910Z,0.90
2022-09-15T12:22:46.857Z,0.80
2022-09-15T12:25:47.405Z,0.90
2022-09-15T12:28:53.039Z,1.00
2022-09-15T12:30:21.474Z,1.10
2022-09-15T12:36:24.050Z,1.00
2022-09-15T12:37:24.400Z,1.00
2022-09-15T12:38:43.548Z,0.90
2022-09-15T12:39:20.540Z,1.50
2022-09-15T12:41:02.017Z,0.90
2022-09-15T12:42:37.290Z,1.00
2022-09-15T12:44:44.699Z,1.10
2022-09-15T12:47:31.164Z,0.80
2022-09-15T12:49:05.303Z,0.90
2022-09-15T12:56:40.455Z,1.30
2022-09-15T12:59:26.409Z,1.10
2022-09-15T13:13:15.865Z,1.00
2022-09-15T13:15:36.995Z,1.10
2022-09-15T13:18:36.558Z,1.10
2022-09-15T13:22:21.154Z,1.20
2022-09-15T13:25:02.653Z,0.80
2022-09-15T13:27:55.121Z,1.30
2022-09-15T13:30:00.568Z,2.50
2022-09-15T13:32:52.444Z,1.50
2022-09-15T13:42:01.430Z,1.00
2022-09-15T13:43:59.553Z,0.80
2022-09-15T13:45:45.962Z,0.90
2022-09-15T13:49:37.218Z,1.20
2022-09-15T13:56:01.779Z,1.40
2022-09-15T14:06:45.927Z,0.70
2022-09-15T14:08:38.085Z,1.20
2022-09-15T14:10:28.025Z,0.80
2022-09-15T14:14:36.905Z,1.00
2022-09-15T14:17:29.825Z,0.70
2022-09-15T14:19:15.268Z,0.90
2022-09-15T14:20:51.009Z,1.00
2022-09-15T14:22:23.011Z,1.00
2022-09-15T14:25:05.176Z,0.70
2022-09-15T14:27:06.111Z,1.30
2022-09-15T14:28:40.157Z,1.40
2022-09-15T14:35:00.534Z,1.00
2022-09-15T14:36:51.767Z,1.20
2022-09-15T14:39:14.032Z,1.20
2022-09-15T14:46:05.923Z,1.20
2022-09-15T14:50:31.860Z,0.80
2022-09-15T14:51:57.568Z,0.60
2022-09-15T14:54:59.214Z,0.70
2022-09-15T14:57:28.716Z,0.80
2022-09-15T15:02:17.957Z,0.80
2022-09-15T15:04:58.563Z,0.60
2022-09-15T15:07:05.978Z,1.30
2022-09-15T15:09:00.654Z,1.00
2022-09-15T15:14:55.660Z,1.10
2022-09-15T15:20:49.741Z,0.80
2022-09-15T15:25:21.793Z,0.70
2022-09-15T15:28:36.649Z,1.50
2022-09-15T15:35:30.883Z,1.10
2022-09-15T15:37:08.391Z,0.90
2022-09-15T15:38:47.449Z,1.00
2022-09-15T15:42:01.702Z,1.10
2022-09-15T15:53:51.612Z,0.80
2022-09-15T15:58:53.548Z,0.90
2022-09-15T16:01:13.176Z,0.90
2022-09-15T16:03:52.152Z,0.60
2022-09-15T16:08:29.695Z,0.70
2022-09-15T16:11:51.952Z,0.70
2022-09-15T16:15:00.255Z,0.70
2022-09-15T16:18:02.397Z,0.70
2022-09-15T16:19:31.753Z,0.60
2022-09-15T16:24:54.157Z,0.80
2022-09-15T16:29:01.385Z,0.70
2022-09-15T16:32:07.886Z,0.90
2022-09-15T16:38:27.337Z,1.00
2022-09-15T16:42:52.584Z,0.60
2022-09-15T16:49:08.984Z,1.80
2022-09-15T16:53:15.115Z,0.90
2022-09-15T16:55:58.891Z,1.10
2022-09-15T16:59:11.422Z,0.90
2022-09-15T17:04:14.422Z,0.90
2022-09-15T17:06:35.090Z,0.60
2022-09-15T17:08:05.028Z,0.50
2022-09-15T17:10:22.000Z,0.90
2022-09-15T17:16:37.493Z,0.70
2022-09-15T17:18:59.877Z,1.40
2022-09-15T17:26:17.150Z,0.60
2022-09-15T17:28:07.680Z,0.60
2022-09-15T17:36:00.622Z,0.60
2022-09-15T17:38:48.192Z,0.70
2022-09-15T17:47:02.625Z,0.80
2022-09-15T17:49:20.416Z,1.40
2022-09-15T17:52:33.085Z,0.60
2022-09-15T17:54:37.014Z,0.80
2022-09-15T18:00:40.111Z,0.90
2022-09-15T18:03:32.631Z,0.90
2022-09-15T18:08:01.050Z,2.00
2022-09-15T18:09:29.055Z,1.90
2022-09-15T18:10:58.941Z,1.40
2022-09-15T18:13:30.566Z,0.70
2022-09-15T18:19:54.439Z,1.00
2022-09-15T18:23:06.276Z,1.80
2022-09-15T18:26:55.917Z,0.80
2022-09-15T18:28:22.067Z,1.10
2022-09-15T18:31:26.416Z,1.50
2022-09-15T18:35:20.379Z,0.90
2022-09-15T18:37:42.077Z,1.30
2022-09-15T18:39:10.939Z,1.00
2022-09-15T18:41:24.418Z,1.10
2022-09-15T18:43:44.134Z,1.50
2022-09-15T18:55:02.067Z,1.40
2022-09-15T18:56:52.272Z,0.90
2022-09-15T19:00:50.094Z,0.70
2022-09-15T19:02:25.357Z,0.80
2022-09-15T19:03:51.172Z,1.10
2022-09-15T19:05:24.870Z,1.80
2022-09-15T19:08:41.227Z,0.70
2022-09-15T19:11:42.677Z,1.50
2022-09-15T19:13:10.946Z,1.00
2022-09-15T19:15:13.464Z,1.20
2022-09-15T19:18:22.817Z,1.00
2022-09-15T19:22:37.797Z,1.00
2022-09-15T19:24:00.095Z,0.80
2022-09-15T19:26:12.499Z,1.20
2022-09-15T19:29:36.988Z,1.10
2022-09-15T19:36:47.708Z,0.80
2022-09-15T19:42:46.148Z,2.60
2022-09-15T19:44:15.945Z,2.10
2022-09-15T19:45:45.815Z,1.20
2022-09-15T19:47:54.880Z,1.10
2022-09-15T19:50:10.587Z,1.00
2022-09-15T19:53:05.549Z,0.80
2022-09-15T19:58:55.929Z,1.20
2022-09-15T20:00:19.505Z,0.80
2022-09-15T20:01:48.604Z,1.00
2022-09-15T20:04:47.989Z,1.00
2022-09-15T20:12:54.955Z,1.00
2022-09-15T20:15:24.436Z,1.20
2022-09-15T20:19:01.499Z,1.00
2022-09-15T20:24:54.832Z,1.50
2022-09-15T20:26:54.898Z,1.90
2022-09-15T20:29:38.178Z,1.10
2022-09-15T20:33:42.197Z,0.90
2022-09-15T20:35:33.883Z,1.20
2022-09-15T20:39:28.271Z,0.90
2022-09-15T20:41:29.771Z,0.90
2022-09-15T20:48:16.353Z,1.00
2022-09-15T20:55:18.373Z,1.30
2022-09-15T20:58:16.574Z,1.10
2022-09-15T21:10:16.840Z,1.10
2022-09-15T21:13:09.994Z,1.20
2022-09-15T21:16:13.654Z,0.90
2022-09-15T21:17:44.822Z,1.10
2022-09-15T21:20:26.245Z,1.20
2022-09-15T21:23:21.194Z,1.00
2022-09-15T21:25:30.044Z,1.00
2022-09-15T21:28:11.248Z,0.90
2022-09-15T21:29:43.627Z,0.80
2022-09-15T21:39:00.700Z,0.80
2022-09-15T21:40:26.571Z,0.70
2022-09-15T21:42:47.025Z,0.70
2022-09-15T21:44:49.737Z,0.70
2022-09-15T21:46:57.882Z,0.80
2022-09-15T21:49:55.995Z,0.90
2022-09-15T21:51:45.773Z,0.80
2022-09-15T21:53:15.374Z,0.80
2022-09-15T21:56:51.265Z,2.10
2022-09-15T22:00:14.211Z,1.00
2022-09-15T22:01:39.892Z,1.00
2022-09-15T22:03:10.383Z,1.40
2022-09-15T22:05:12.729Z,1.30
2022-09-15T22:07:10.680Z,1.00
2022-09-15T22:09:44.738Z,1.40
2022-09-15T22:12:57.339Z,1.60
2022-09-15T22:14:26.665Z,1.40
2022-09-15T22:17:38.057Z,1.70
2022-09-15T22:21:23.416Z,1.40
2022-09-15T22:25:52.615Z,1.60
2022-09-15T22:34:27.275Z,1.30
2022-09-15T22:36:50.065Z,1.30
2022-09-15T22:39:58.789Z,1.50
2022-09-15T22:41:21.868Z,1.20
2022-09-15T22:42:49.280Z,1.40
2022-09-15T22:44:19.323Z,1.30
2022-09-15T22:47:31.713Z,1.20
2022-09-15T22:49:04.876Z,1.00
2022-09-15T22:51:05.011Z,1.20
2022-09-15T22:53:05.005Z,1.10
2022-09-15T22:54:33.942Z,1.10
2022-09-15T22:57:44.370Z,1.10
2022-09-15T23:00:01.825Z,1.30
2022-09-15T23:05:36.718Z,1.30
2022-09-15T23:08:00.369Z,1.10
2022-09-15T23:11:27.470Z,1.00
2022-09-15T23:12:57.414Z,0.80
2022-09-15T23:14:29.310Z,0.80
2022-09-15T23:19:45.361Z,0.70
2022-09-15T23:21:16.177Z,0.70
2022-09-15T23:26:03.743Z,0.70
2022-09-15T23:27:33.688Z,0.60
2022-09-15T23:30:11.416Z,1.20
2022-09-15T23:32:23.190Z,1.00
2022-09-15T23:33:51.771Z,0.80
2022-09-15T23:35:21.072Z,0.80
2022-09-15T23:37:40.773Z,0.80
2022-09-15T23:40:29.192Z,1.10
2022-09-15T23:42:36.072Z,1.30
2022-09-15T23:44:56.099Z,0.90
2022-09-15T23:47:47.471Z,1.10
2022-09-15T23:49:28.451Z,1.00
2022-09-15T23:51:17.671Z,0.70
2022-09-15T23:52:48.184Z,0.70
2022-09-15T23:56:24.627Z,1.10
2022-09-15T23:59:17.807Z,0.90
